Time;durP1;ratioP1;P1;durP2;ratioP2;P2;SDS_P1;SDS_P2;PMS_P1;PMS_P2;Temp;Humidity;BMP_temperature;BMP_pressure;BME280_temperature;BME280_humidity;BME280_pressure;Samples;Min_cycle;Max_cycle;Signal;HPM_P1;HPM_P2
2021/12/28 00:00:47;;;;;;;11.75;10.32;;;;;;;19.34;50.77;100438.00;5033763;28;20049;-79
2021/12/28 00:03:15;;;;;;;12.40;11.05;;;;;;;19.36;50.48;100443.22;5035007;28;20045;-79
2021/12/28 00:05:42;;;;;;;12.35;11.07;;;;;;;19.36;50.63;100445.88;5066532;28;20084;-79
2021/12/28 00:08:10;;;;;;;12.15;10.95;;;;;;;19.35;50.45;100438.84;5034805;28;20044;-79
2021/12/28 00:10:37;;;;;;;13.50;10.40;;;;;;;19.37;50.39;100431.50;5033494;28;20037;-79
2021/12/28 00:13:05;;;;;;;12.70;11.40;;;;;;;19.37;50.37;100426.13;5034820;28;20045;-79
2021/12/28 00:15:46;;;;;;;11.40;9.93;;;;;;;19.37;50.26;100426.13;5034604;28;20049;-80
2021/12/28 00:18:14;;;;;;;11.75;10.45;;;;;;;19.37;50.05;100423.44;5034680;28;20426;-79
2021/12/28 00:20:44;;;;;;;12.05;10.95;;;;;;;19.39;50.23;100418.78;5066152;28;20041;-79
2021/12/28 00:23:17;;;;;;;12.13;10.93;;;;;;;19.40;50.08;100417.78;5034778;28;20053;-79
2021/12/28 00:25:46;;;;;;;11.77;10.52;;;;;;;19.40;50.13;100421.31;5034986;28;20049;-79
2021/12/28 00:28:14;;;;;;;12.45;10.90;;;;;;;19.40;49.98;100418.63;5033043;28;20045;-79
2021/12/28 00:30:43;;;;;;;12.02;10.50;;;;;;;19.41;49.78;100420.34;5032794;28;20057;-79
2021/12/28 00:33:10;;;;;;;12.18;10.90;;;;;;;19.42;49.83;100423.88;5033271;28;20481;-79
2021/12/28 00:35:40;;;;;;;13.13;10.65;;;;;;;19.42;49.78;100432.75;5057140;28;20048;-79
2021/12/28 00:38:10;;;;;;;10.75;9.65;;;;;;;19.44;49.79;100436.13;5032248;28;20046;-79
2021/12/28 00:40:38;;;;;;;12.10;10.90;;;;;;;19.44;49.79;100433.44;5034153;28;20382;-79
2021/12/28 00:43:06;;;;;;;10.90;9.80;;;;;;;19.46;49.59;100427.97;5034420;28;20060;-80
2021/12/28 00:45:33;;;;;;;12.20;10.95;;;;;;;19.46;49.47;100427.97;5034487;28;20056;-80
2021/12/28 00:48:01;;;;;;;11.20;10.00;;;;;;;19.47;49.45;100430.50;5034384;28;20493;-80
2021/12/28 00:50:29;;;;;;;12.02;10.82;;;;;;;19.49;49.54;100433.91;5033835;28;20053;-80
2021/12/28 00:52:57;;;;;;;11.27;10.27;;;;;;;19.48;49.45;100440.22;5034037;28;20060;-79
2021/12/28 00:55:25;;;;;;;12.65;10.85;;;;;;;19.50;49.61;100434.75;5015979;28;20072;-79
2021/12/28 00:57:53;;;;;;;12.48;10.82;;;;;;;19.51;49.12;100437.28;5016432;28;20049;-80
2021/12/28 01:00:33;;;;;;;11.63;10.38;;;;;;;19.52;49.47;100446.16;5034160;28;20045;-79
2021/12/28 01:03:04;;;;;;;11.20;10.00;;;;;;;19.52;49.40;100456.91;5033638;28;20053;-79
2021/12/28 01:05:32;;;;;;;11.55;10.35;;;;;;;19.52;49.48;100452.38;5034066;28;20057;-79
2021/12/28 01:08:00;;;;;;;11.40;10.30;;;;;;;19.54;49.31;100459.47;5034038;28;20068;-79
2021/12/28 01:10:32;;;;;;;11.35;10.20;;;;;;;19.55;49.49;100477.25;5034159;28;20041;-79
2021/12/28 01:13:00;;;;;;;11.35;10.15;;;;;;;19.54;49.36;100470.22;5035106;28;20401;-79
2021/12/28 01:15:28;;;;;;;11.10;10.00;;;;;;;19.56;49.19;100468.22;5034559;28;20045;-79
2021/12/28 01:17:56;;;;;;;12.13;10.98;;;;;;;19.56;49.31;100470.91;5035610;28;20053;-79
2021/12/28 01:20:25;;;;;;;10.88;9.75;;;;;;;19.55;49.31;100470.06;5035016;28;20045;-79
2021/12/28 01:22:53;;;;;;;11.95;10.65;;;;;;;19.56;49.01;100477.13;5034615;28;20053;-79
2021/12/28 01:25:21;;;;;;;12.27;10.98;;;;;;;19.56;49.26;100471.75;5034148;28;20097;-79
2021/12/28 01:27:49;;;;;;;11.88;10.68;;;;;;;19.57;49.11;100475.28;5033796;28;20054;-79
2021/12/28 01:30:20;;;;;;;11.27;10.10;;;;;;;19.58;49.11;100468.94;5015300;28;20060;-79
2021/12/28 01:32:49;;;;;;;11.80;10.50;;;;;;;19.58;49.17;100469.78;5033330;28;20049;-80
2021/12/28 01:35:17;;;;;;;11.23;10.13;;;;;;;19.57;49.14;100470.78;5033301;28;20492;-80
2021/12/28 01:37:45;;;;;;;12.88;11.52;;;;;;;19.58;49.15;100480.53;5032837;28;20041;-79
2021/12/28 01:40:16;;;;;;;11.98;10.63;;;;;;;19.58;49.18;100475.16;5032658;28;20408;-79
2021/12/28 01:43:15;;;;;;;11.65;10.25;;;;;;;19.58;49.02;100483.19;5033651;28;20052;-79
2021/12/28 01:45:53;;;;;;;13.07;11.00;;;;;;;19.58;49.10;100477.84;5003227;28;20053;-79
2021/12/28 01:48:29;;;;;;;13.20;11.50;;;;;;;19.59;49.03;100471.47;5033118;28;20057;-79
2021/12/28 01:51:08;;;;;;;12.38;10.98;;;;;;;19.59;48.79;100471.47;5014938;28;20409;-79
2021/12/28 01:53:36;;;;;;;12.45;11.23;;;;;;;19.58;48.97;100472.47;5033641;28;20071;-79
2021/12/28 01:56:12;;;;;;;11.48;10.38;;;;;;;19.59;49.03;100476.00;5032897;28;20413;-79
2021/12/28 01:58:40;;;;;;;13.10;11.40;;;;;;;19.58;48.86;100475.16;5015594;28;20382;-79
2021/12/28 02:01:08;;;;;;;12.98;11.35;;;;;;;19.59;48.92;100481.38;5015482;28;20042;-79
2021/12/28 02:03:38;;;;;;;13.05;11.38;;;;;;;19.57;48.88;100468.09;5032597;28;20064;-79
2021/12/28 02:06:06;;;;;;;12.95;11.70;;;;;;;19.58;48.75;100472.47;4998494;28;20054;-79
2021/12/28 02:08:34;;;;;;;12.13;10.73;;;;;;;19.58;48.75;100471.63;5032915;28;20052;-79
2021/12/28 02:11:03;;;;;;;12.15;10.85;;;;;;;19.58;48.82;100464.41;5015278;28;20045;-79
2021/12/28 02:13:30;;;;;;;12.23;10.65;;;;;;;19.58;48.83;100456.34;5032827;28;20048;-80
2021/12/28 02:15:59;;;;;;;11.70;10.23;;;;;;;19.59;48.71;100452.66;5033000;28;20060;-79
2021/12/28 02:18:29;;;;;;;12.20;10.88;;;;;;;19.58;48.71;100448.31;5032562;28;20046;-79
2021/12/28 02:20:58;;;;;;;11.57;10.35;;;;;;;19.59;48.72;100449.13;5015175;28;20041;-79
2021/12/28 02:23:25;;;;;;;10.77;9.77;;;;;;;19.61;48.61;100441.81;5048047;28;20042;-79
2021/12/28 02:25:53;;;;;;;12.27;10.98;;;;;;;19.60;48.75;100440.09;5032732;28;20046;-79
2021/12/28 02:28:21;;;;;;;12.05;10.77;;;;;;;19.60;48.68;100443.63;5032464;28;20045;-79
2021/12/28 02:30:52;;;;;;;11.38;10.27;;;;;;;19.62;48.72;100443.53;5032891;28;20041;-79
2021/12/28 02:33:23;;;;;;;11.52;10.35;;;;;;;19.60;48.70;100437.41;5032647;28;20049;-79
2021/12/28 02:35:54;;;;;;;11.20;9.88;;;;;;;19.61;48.71;100433.75;5015147;28;20440;-79
2021/12/28 02:38:22;;;;;;;11.07;9.98;;;;;;;19.61;48.74;100429.25;5031811;28;20405;-79
2021/12/28 02:40:49;;;;;;;11.48;10.27;;;;;;;19.62;48.73;100427.41;5032383;28;20042;-79
2021/12/28 02:43:18;;;;;;;11.15;10.07;;;;;;;19.61;48.53;100429.25;5064293;28;20052;-79
2021/12/28 02:45:52;;;;;;;11.90;10.70;;;;;;;19.62;48.57;100422.88;5032544;28;20493;-79
2021/12/28 02:48:21;;;;;;;10.68;9.57;;;;;;;19.62;48.63;100430.94;5032259;28;20046;-79
2021/12/28 02:50:52;;;;;;;11.80;10.60;;;;;;;19.62;48.71;100422.88;5033042;28;20428;-80
2021/12/28 02:53:19;;;;;;;11.20;10.18;;;;;;;19.63;48.33;100423.72;5018193;28;20060;-79
2021/12/28 02:55:49;;;;;;;10.95;9.85;;;;;;;19.63;48.73;100419.19;5036091;28;20052;-79
2021/12/28 02:58:44;;;;;;;11.93;9.98;;;;;;;19.63;48.48;100413.00;5036262;28;20506;-79
2021/12/28 03:01:16;;;;;;;9.77;8.77;;;;;;;19.63;48.50;100402.25;5036374;28;20046;-79
2021/12/28 03:03:45;;;;;;;11.20;9.95;;;;;;;19.63;48.40;100403.09;5036378;28;20049;-79
2021/12/28 03:06:15;;;;;;;11.50;10.30;;;;;;;19.63;48.45;100411.16;5035972;28;20046;-79
2021/12/28 03:08:48;;;;;;;10.77;9.68;;;;;;;19.64;48.39;100401.25;5036261;28;20045;-79
2021/12/28 03:11:16;;;;;;;10.90;9.75;;;;;;;19.64;48.46;100393.19;5018604;28;20045;-80
2021/12/28 03:13:47;;;;;;;11.40;10.25;;;;;;;19.64;48.48;100396.72;5036292;28;20381;-81
2021/12/28 03:16:16;;;;;;;10.60;9.50;;;;;;;19.63;48.44;100378.91;5035999;28;20152;-80
2021/12/28 03:18:44;;;;;;;11.32;10.13;;;;;;;19.63;48.53;100381.59;5035815;28;20378;-80
2021/12/28 03:21:14;;;;;;;12.63;10.88;;;;;;;19.63;48.59;100375.41;5036015;28;20045;-80
2021/12/28 03:23:42;;;;;;;10.98;9.98;;;;;;;19.64;48.64;100382.44;5035524;28;20052;-80
2021/12/28 03:26:11;;;;;;;10.90;9.80;;;;;;;19.65;48.64;100386.84;5035693;28;20057;-80
2021/12/28 03:28:40;;;;;;;10.75;9.75;;;;;;;19.64;48.72;100372.56;5017259;28;20057;-80
2021/12/28 03:31:11;;;;;;;11.65;10.45;;;;;;;19.65;48.71;100368.06;5035641;28;20493;-81
2021/12/28 03:33:41;;;;;;;12.23;11.02;;;;;;;19.63;48.98;100364.66;5051138;28;20050;-80
2021/12/28 03:36:10;;;;;;;12.30;10.13;;;;;;;19.64;48.80;100355.59;5035534;28;20408;-80
2021/12/28 03:38:40;;;;;;;11.13;10.02;;;;;;;19.63;48.68;100352.06;5034076;28;20068;-79
2021/12/28 03:41:08;;;;;;;11.48;10.38;;;;;;;19.63;48.58;100337.81;5035236;28;20544;-79
2021/12/28 03:43:37;;;;;;;11.52;10.45;;;;;;;19.63;48.76;100332.44;5035074;28;20131;-80
2021/12/28 03:46:06;;;;;;;11.55;10.38;;;;;;;19.62;48.80;100339.66;5034952;28;20050;-79
2021/12/28 03:48:35;;;;;;;11.10;9.80;;;;;;;19.63;48.62;100344.00;5035387;28;20057;-80
2021/12/28 03:51:03;;;;;;;11.65;10.45;;;;;;;19.63;48.77;100351.22;5035331;28;20049;-80
2021/12/28 03:53:31;;;;;;;11.48;10.27;;;;;;;19.62;48.76;100363.81;5035240;28;20057;-79
2021/12/28 03:55:58;;;;;;;12.07;10.88;;;;;;;19.62;48.56;100361.13;5035307;28;20056;-80
2021/12/28 03:58:25;;;;;;;11.50;10.30;;;;;;;19.62;48.60;100354.91;5035258;28;20049;-79
2021/12/28 04:00:53;;;;;;;12.32;11.10;;;;;;;19.61;48.74;100353.19;5033930;28;20041;-80
2021/12/28 04:03:23;;;;;;;12.30;11.00;;;;;;;19.61;48.60;100356.75;5032583;28;20053;-81
2021/12/28 04:05:51;;;;;;;11.50;10.30;;;;;;;19.61;48.62;100372.88;5035041;28;20053;-80
2021/12/28 04:08:22;;;;;;;10.98;9.88;;;;;;;19.60;48.63;100371.13;5035064;28;20045;-80
2021/12/28 04:11:02;;;;;;;13.70;12.40;;;;;;;19.60;48.78;100384.53;5034504;28;20060;-81
2021/12/28 04:13:29;;;;;;;11.48;10.38;;;;;;;19.59;48.75;100398.97;5034929;28;20052;-80
2021/12/28 04:15:57;;;;;;;11.55;10.45;;;;;;;19.59;48.63;100408.88;5035246;28;20068;-80
2021/12/28 04:18:24;;;;;;;12.35;11.15;;;;;;;19.58;48.95;100413.38;5035270;28;20045;-80
2021/12/28 04:20:52;;;;;;;11.68;10.55;;;;;;;19.59;48.56;100433.03;5066676;28;20041;-80
2021/12/28 04:23:19;;;;;;;11.02;10.02;;;;;;;19.57;48.64;100427.81;5033611;28;20508;-80
2021/12/28 04:25:46;;;;;;;12.70;11.50;;;;;;;19.57;48.57;100441.25;5034588;28;20049;-80
2021/12/28 04:28:14;;;;;;;13.25;11.93;;;;;;;19.57;48.57;100441.25;5034495;28;20048;-80
2021/12/28 04:30:41;;;;;;;12.07;10.82;;;;;;;19.57;48.89;100448.41;5034457;28;20068;-80
2021/12/28 04:33:09;;;;;;;12.55;11.23;;;;;;;19.57;48.85;100451.09;5034504;28;20042;-80
2021/12/28 04:35:36;;;;;;;12.57;11.38;;;;;;;19.57;48.84;100453.78;5034369;28;20481;-80
2021/12/28 04:38:03;;;;;;;12.13;10.98;;;;;;;19.56;48.64;100450.25;5032934;28;20053;-80
2021/12/28 04:40:35;;;;;;;12.57;11.32;;;;;;;19.56;48.81;100436.00;5034102;28;20072;-79
2021/12/28 04:43:03;;;;;;;11.60;10.52;;;;;;;19.56;48.63;100439.53;5033091;28;20515;-79
2021/12/28 04:45:31;;;;;;;12.15;10.98;;;;;;;19.54;48.67;100435.31;5032894;28;20056;-79
2021/12/28 04:47:59;;;;;;;12.13;11.02;;;;;;;19.55;48.76;100435.16;5033223;28;20515;-80
2021/12/28 04:50:26;;;;;;;11.77;10.35;;;;;;;19.54;48.54;100433.47;5034219;28;20052;-79
2021/12/28 04:52:57;;;;;;;13.50;12.20;;;;;;;19.54;48.54;100428.09;5022353;28;20595;-80
2021/12/28 04:55:24;;;;;;;11.55;10.45;;;;;;;19.55;48.53;100421.72;5016405;28;20053;-79
2021/12/28 04:57:51;;;;;;;12.15;10.95;;;;;;;19.56;48.08;100414.50;5016404;28;20160;-80
2021/12/28 05:00:21;;;;;;;13.45;12.15;;;;;;;19.58;48.36;100420.59;5033937;28;20049;-80
2021/12/28 05:02:50;;;;;;;12.90;11.60;;;;;;;19.57;48.42;100419.75;5033997;28;20413;-80
2021/12/28 05:05:18;;;;;;;12.23;11.05;;;;;;;19.58;48.49;100425.97;5033772;28;20050;-80
2021/12/28 05:07:45;;;;;;;13.60;12.25;;;;;;;19.59;48.50;100427.66;5033917;28;20053;-79
2021/12/28 05:10:12;;;;;;;12.85;11.55;;;;;;;19.59;48.55;100427.66;5033777;28;20045;-80
2021/12/28 05:12:40;;;;;;;12.52;11.30;;;;;;;19.59;48.43;100436.56;5033464;28;20048;-80
2021/12/28 05:15:08;;;;;;;12.68;11.35;;;;;;;19.60;48.48;100427.50;5032772;28;20037;-80
2021/12/28 05:17:36;;;;;;;13.13;11.82;;;;;;;19.60;48.48;100423.97;5033702;28;20053;-80
2021/12/28 05:20:05;;;;;;;13.50;12.02;;;;;;;19.60;48.39;100424.81;5033771;28;20461;-79
2021/12/28 05:22:33;;;;;;;13.25;11.95;;;;;;;19.61;48.70;100414.94;5015980;28;20041;-79
2021/12/28 05:25:00;;;;;;;13.93;11.05;;;;;;;19.59;48.63;100423.13;5016414;28;20064;-79
2021/12/28 05:27:28;;;;;;;12.25;11.05;;;;;;;19.62;48.68;100428.25;5033372;28;20493;-79
2021/12/28 05:29:55;;;;;;;11.57;10.48;;;;;;;19.61;48.72;100423.00;5033178;28;20068;-79
2021/12/28 05:32:23;;;;;;;13.20;11.80;;;;;;;19.61;48.48;100428.38;5033084;28;20044;-79
2021/12/28 05:34:51;;;;;;;12.88;11.68;;;;;;;19.62;48.82;100430.09;5033405;28;20046;-79
2021/12/28 05:37:18;;;;;;;12.70;11.50;;;;;;;19.60;48.88;100430.19;5015699;28;20053;-79
2021/12/28 05:39:45;;;;;;;13.18;11.77;;;;;;;19.61;48.58;100437.31;5032779;28;20052;-79
2021/12/28 05:42:13;;;;;;;12.27;11.10;;;;;;;19.61;48.67;100441.81;5033182;28;20048;-80
2021/12/28 05:44:40;;;;;;;12.52;11.23;;;;;;;19.62;48.84;100428.25;5033368;28;20056;-80
2021/12/28 05:47:08;;;;;;;12.40;11.20;;;;;;;19.61;48.65;100423.00;5033202;28;20045;-80
2021/12/28 05:49:35;;;;;;;13.25;11.95;;;;;;;19.61;48.83;100421.19;5033613;28;20042;-80
2021/12/28 05:52:03;;;;;;;12.63;11.43;;;;;;;19.61;48.79;100414.94;5033436;28;20060;-80
2021/12/28 05:54:31;;;;;;;11.88;10.68;;;;;;;19.61;48.94;100417.63;5031632;28;20054;-80
2021/12/28 05:56:58;;;;;;;13.20;11.90;;;;;;;19.60;49.01;100408.72;5033596;28;20053;-80
2021/12/28 05:59:26;;;;;;;12.73;11.52;;;;;;;19.61;48.91;100414.94;5033090;28;20045;-79
2021/12/28 06:01:53;;;;;;;11.63;10.52;;;;;;;19.62;48.84;100419.34;5032924;28;20512;-80
2021/12/28 06:04:22;;;;;;;12.88;11.63;;;;;;;19.60;48.91;100422.13;5048187;28;20508;-80
2021/12/28 06:06:50;;;;;;;12.93;11.73;;;;;;;19.60;49.07;100406.03;5032968;28;20041;-80
2021/12/28 06:09:17;;;;;;;12.30;11.10;;;;;;;19.60;49.06;100402.50;5033037;28;20051;-80
2021/12/28 06:11:45;;;;;;;12.85;11.50;;;;;;;19.59;48.96;100400.81;5033053;28;20048;-79
2021/12/28 06:14:13;;;;;;;13.25;11.95;;;;;;;19.58;49.01;100394.59;5014692;28;20053;-80
2021/12/28 06:16:42;;;;;;;13.23;11.90;;;;;;;19.59;49.07;100395.44;5015555;28;20050;-80
2021/12/28 06:19:09;;;;;;;12.57;11.23;;;;;;;19.59;49.01;100390.91;5014488;28;20049;-79
2021/12/28 06:21:37;;;;;;;12.32;11.13;;;;;;;19.59;48.73;100398.13;5032960;28;20057;-79
2021/12/28 06:24:07;;;;;;;12.27;11.07;;;;;;;19.58;49.07;100394.59;5032254;28;20045;-79
2021/12/28 06:26:50;;;;;;;;;;;;;;;;;;;;;
2021/12/28 06:29:26;;;;;;;12.30;11.10;;;;;;;19.55;49.18;100408.31;5019007;28;20060;-80
2021/12/28 06:31:54;;;;;;;12.88;11.68;;;;;;;19.55;49.19;100410.97;5037288;28;20465;-79
2021/12/28 06:34:21;;;;;;;12.77;11.48;;;;;;;19.55;49.25;100407.47;5036903;28;20386;-80
2021/12/28 06:36:49;;;;;;;12.85;11.55;;;;;;;19.54;49.19;100400.41;5018199;28;20056;-80
2021/12/28 06:39:16;;;;;;;13.02;11.70;;;;;;;19.54;49.33;100417.34;5036526;28;20408;-79
2021/12/28 06:41:44;;;;;;;12.88;11.68;;;;;;;19.52;49.33;100428.22;5035766;28;20049;-81
2021/12/28 06:44:11;;;;;;;13.50;12.10;;;;;;;19.53;49.44;100429.09;5018408;28;20060;-81
2021/12/28 06:46:39;;;;;;;12.27;11.10;;;;;;;19.52;49.30;100424.69;5018961;28;20050;-80
2021/12/28 06:49:07;;;;;;;12.40;11.20;;;;;;;19.52;49.40;100430.91;5036289;28;20049;-80
2021/12/28 06:51:34;;;;;;;12.10;11.00;;;;;;;19.52;49.30;100432.75;5036136;28;20052;-80
2021/12/28 06:54:02;;;;;;;12.77;11.48;;;;;;;19.51;49.38;100420.31;5036227;28;20041;-80
2021/12/28 06:56:29;;;;;;;12.20;11.00;;;;;;;19.51;49.08;100423.84;5036360;28;20405;-80
2021/12/28 06:58:57;;;;;;;12.38;11.18;;;;;;;19.51;49.09;100429.22;5036255;28;20049;-80
2021/12/28 07:01:24;;;;;;;12.50;11.38;;;;;;;19.50;49.18;100435.59;5018666;28;20045;-79
2021/12/28 07:03:52;;;;;;;13.05;11.75;;;;;;;19.50;49.10;100434.75;5035893;28;20057;-79
2021/12/28 07:06:23;;;;;;;11.65;10.45;;;;;;;19.50;49.10;100434.75;5036046;28;20049;-78
2021/12/28 07:08:52;;;;;;;13.10;11.77;;;;;;;19.50;49.00;100435.59;5035976;28;20050;-79
2021/12/28 07:11:20;;;;;;;12.73;11.63;;;;;;;19.50;49.17;100429.38;5035825;28;20052;-79
2021/12/28 07:13:47;;;;;;;12.02;10.90;;;;;;;19.50;48.94;100435.59;5036001;28;20060;-80
2021/12/28 07:16:15;;;;;;;11.65;10.45;;;;;;;19.49;49.13;100439.25;5018487;28;20050;-79
2021/12/28 07:18:42;;;;;;;12.02;10.93;;;;;;;19.49;49.08;100443.78;5036003;28;20049;-80
2021/12/28 07:21:10;;;;;;;12.57;11.38;;;;;;;19.49;49.29;100450.00;5018466;28;20053;-80
2021/12/28 07:23:37;;;;;;;12.57;11.38;;;;;;;19.49;49.05;100449.16;5035935;28;20042;-79
2021/12/28 07:26:04;;;;;;;12.30;11.10;;;;;;;19.48;49.00;100448.28;5035785;28;20049;-80
2021/12/28 07:28:32;;;;;;;11.75;10.68;;;;;;;19.50;48.71;100445.47;5017736;28;20061;-80
2021/12/28 07:30:59;;;;;;;12.65;11.45;;;;;;;19.50;48.45;100440.94;5035716;28;20045;-79
2021/12/28 07:33:26;;;;;;;12.27;11.07;;;;;;;19.52;48.60;100454.22;5035911;28;20041;-80
2021/12/28 07:35:54;;;;;;;12.55;11.35;;;;;;;19.53;48.76;100455.94;5036030;28;20045;-79
2021/12/28 07:38:21;;;;;;;11.80;10.70;;;;;;;19.54;48.69;100463.00;5016402;28;20153;-79
2021/12/28 07:40:55;;;;;;;12.05;10.93;;;;;;;19.55;48.60;100466.53;5018570;28;20422;-80
2021/12/28 07:43:26;;;;;;;12.00;10.80;;;;;;;19.55;48.65;100458.47;5030255;28;20041;-80
2021/12/28 07:45:55;;;;;;;12.32;11.02;;;;;;;19.52;48.93;100459.59;5034082;28;20050;-78
2021/12/28 07:48:23;;;;;;;12.57;11.20;;;;;;;19.51;49.05;100466.81;5035324;28;20065;-79
2021/12/28 07:50:51;;;;;;;11.02;10.00;;;;;;;19.50;49.36;100466.97;5034285;28;20045;-79
2021/12/28 07:53:18;;;;;;;12.10;10.63;;;;;;;19.49;49.65;100473.31;5066980;28;20139;-79
2021/12/28 07:55:45;;;;;;;11.27;10.27;;;;;;;19.47;49.53;100480.66;5035448;28;20045;-79
2021/12/28 07:58:13;;;;;;;13.38;10.88;;;;;;;19.45;49.73;100475.44;5033877;28;20053;-79
2021/12/28 08:00:41;;;;;;;12.25;10.95;;;;;;;19.44;49.68;100492.50;5035311;28;20053;-79
2021/12/28 08:03:09;;;;;;;11.02;10.02;;;;;;;19.44;49.61;100480.94;5033272;28;20405;-80
2021/12/28 08:05:37;;;;;;;13.45;9.88;;;;;;;19.42;50.25;100474.88;5035242;28;20057;-80
2021/12/28 08:08:04;;;;;;;11.90;10.73;;;;;;;19.42;50.29;100470.34;5034907;28;20489;-79
2021/12/28 08:10:32;;;;;;;22.88;20.77;;;;;;;19.34;45.57;100466.69;5035305;28;20049;-79
2021/12/28 08:12:59;;;;;;;13.48;11.20;;;;;;;19.30;49.61;100476.84;5034693;28;20046;-79
2021/12/28 08:15:27;;;;;;;12.80;11.50;;;;;;;19.29;50.07;100477.84;5035065;28;20048;-79
2021/12/28 08:18:00;;;;;;;12.20;11.00;;;;;;;19.29;50.03;100461.72;5034882;28;20056;-79
2021/12/28 08:20:27;;;;;;;11.98;10.77;;;;;;;19.31;50.18;100450.84;5034664;28;20045;-79
2021/12/28 08:22:56;;;;;;;11.63;10.43;;;;;;;19.33;49.71;100438.16;5035295;28;20547;-78
2021/12/28 08:25:24;;;;;;;23.98;21.48;;;;;;;19.21;45.88;100432.06;5035157;28;20601;-84
2021/12/28 08:27:51;;;;;;;15.50;13.75;;;;;;;19.15;48.58;100441.50;5034784;28;20481;-79
2021/12/28 08:30:20;;;;;;;12.50;11.20;;;;;;;19.15;49.28;100456.75;5034631;28;20053;-80
2021/12/28 08:32:48;;;;;;;14.05;12.63;;;;;;;19.16;49.47;100478.09;5032754;28;20048;-79
2021/12/28 08:35:17;;;;;;;13.43;12.20;;;;;;;19.16;49.11;100490.66;5032695;28;20053;-79
2021/12/28 08:37:44;;;;;;;15.20;13.80;;;;;;;19.16;48.56;100504.06;5034955;28;20068;-79
2021/12/28 08:40:13;;;;;;;22.40;19.05;;;;;;;19.15;47.18;100502.38;5034425;28;20046;-79
2021/12/28 08:42:41;;;;;;;26.13;23.42;;;;;;;19.13;46.32;100489.09;5033633;28;20036;-79
2021/12/28 08:45:09;;;;;;;23.50;21.08;;;;;;;19.13;46.70;100488.28;5033954;28;20393;-80
2021/12/28 08:47:37;;;;;;;22.17;18.67;;;;;;;19.12;47.32;100482.06;5034789;28;20409;-79
2021/12/28 08:50:08;;;;;;;22.25;20.05;;;;;;;19.13;46.82;100501.69;5034497;28;20400;-79
2021/12/28 08:52:36;;;;;;;22.98;20.67;;;;;;;19.11;46.89;100509.84;5034054;28;20053;-78
2021/12/28 08:55:05;;;;;;;32.17;27.83;;;;;;;18.94;44.94;100515.88;5034147;28;20053;-80
2021/12/28 08:57:34;;;;;;;33.25;29.85;;;;;;;18.71;45.15;100518.75;5034560;28;20049;-79
2021/12/28 09:00:02;;;;;;;34.17;30.52;;;;;;;18.51;45.45;100516.94;5016971;28;20056;-80
2021/12/28 09:02:30;;;;;;;32.75;29.23;;;;;;;18.28;45.64;100516.28;5049368;28;20412;-79
2021/12/28 09:04:57;;;;;;;35.72;30.33;;;;;;;18.10;45.96;100526.75;5034071;28;20056;-82
2021/12/28 09:07:25;;;;;;;31.98;28.60;;;;;;;18.09;46.66;100533.09;5033767;28;20378;-80
2021/12/28 09:09:56;;;;;;;21.63;19.35;;;;;;;18.22;48.62;100531.06;5034260;28;20405;-80
2021/12/28 09:12:24;;;;;;;20.27;18.23;;;;;;;18.33;49.09;100535.50;5034124;28;20512;-79
2021/12/28 09:14:51;;;;;;;21.45;19.13;;;;;;;18.43;48.89;100535.53;5032692;28;20045;-80
2021/12/28 09:17:19;;;;;;;20.48;18.08;;;;;;;18.51;48.58;100528.56;5013780;28;20535;-79
2021/12/28 09:19:46;;;;;;;20.20;18.00;;;;;;;18.58;48.49;100531.53;5014087;28;20531;-80
2021/12/28 09:22:14;;;;;;;19.27;17.38;;;;;;;18.64;48.44;100525.66;5033052;28;20052;-79
2021/12/28 09:24:41;;;;;;;17.02;15.40;;;;;;;18.69;48.24;100520.72;5032738;28;20401;-79
2021/12/28 09:27:14;;;;;;;18.25;16.45;;;;;;;18.74;48.22;100517.66;5015971;28;20045;-80
2021/12/28 09:29:43;;;;;;;16.73;14.90;;;;;;;18.78;48.32;100505.69;5015099;28;20056;-79
2021/12/28 09:32:17;;;;;;;15.80;14.25;;;;;;;18.81;48.18;100504.56;5033210;28;20425;-81
2021/12/28 09:34:48;;;;;;;14.93;13.38;;;;;;;18.85;48.11;100508.66;5048435;28;20049;-81
2021/12/28 09:37:16;;;;;;;14.63;13.13;;;;;;;18.87;48.13;100510.22;5033888;28;20053;-81
2021/12/28 09:39:43;;;;;;;15.10;13.57;;;;;;;18.90;48.36;100520.69;5014638;28;20057;-81
2021/12/28 09:42:11;;;;;;;16.10;13.68;;;;;;;18.90;48.15;100520.69;5032926;28;20512;-81
2021/12/28 09:44:47;;;;;;;14.63;12.90;;;;;;;18.94;48.01;100511.38;5031432;28;20046;-81
2021/12/28 09:47:16;;;;;;;14.93;13.43;;;;;;;18.95;47.76;100521.09;5033283;28;20049;-81
2021/12/28 09:49:44;;;;;;;14.80;13.20;;;;;;;18.96;47.98;100522.81;5032940;28;20287;-79
2021/12/28 09:52:12;;;;;;;14.38;12.93;;;;;;;18.98;47.75;100520.00;5032947;28;20552;-80
2021/12/28 09:54:40;;;;;;;13.18;11.88;;;;;;;18.99;47.83;100511.81;5033090;28;20057;-81
2021/12/28 09:57:08;;;;;;;13.25;11.85;;;;;;;19.00;47.87;100497.41;5032655;28;20045;-79
2021/12/28 09:59:36;;;;;;;13.02;11.77;;;;;;;19.00;47.86;100486.69;5032665;28;20053;-81
2021/12/28 10:02:09;;;;;;;13.75;12.30;;;;;;;19.02;47.86;100478.50;5032396;28;20042;-81
2021/12/28 10:04:51;;;;;;;13.75;12.23;;;;;;;19.03;47.85;100474.81;5032614;28;20052;-79
2021/12/28 10:07:21;;;;;;;13.00;11.73;;;;;;;19.04;47.90;100476.53;5032919;28;20056;-81
2021/12/28 10:09:49;;;;;;;12.75;11.45;;;;;;;19.05;47.67;100470.19;5033076;28;20053;-81
2021/12/28 10:12:48;;;;;;;13.68;11.70;;;;;;;19.07;47.70;100451.25;5032834;28;20508;-81
2021/12/28 10:15:26;;;;;;;12.68;11.38;;;;;;;19.06;47.79;100430.78;5029237;28;20412;-80
2021/12/28 10:17:59;;;;;;;12.57;11.38;;;;;;;19.06;47.76;100436.16;5033555;28;20481;-80
2021/12/28 10:20:32;;;;;;;14.52;11.57;;;;;;;19.07;47.80;100433.31;5036000;28;20038;-80
2021/12/28 10:23:03;;;;;;;11.73;10.52;;;;;;;19.08;47.55;100447.56;5036873;28;20049;-80
2021/12/28 10:25:53;;;;;;;12.27;11.10;;;;;;;19.09;47.61;100447.44;5034338;28;20037;-81
2021/12/28 10:28:24;;;;;;;13.10;11.73;;;;;;;19.09;47.63;100419.78;5034017;28;20053;-80
2021/12/28 10:30:58;;;;;;;12.35;11.13;;;;;;;19.09;47.51;100415.25;5032813;28;20057;-80
2021/12/28 10:33:28;;;;;;;12.60;10.93;;;;;;;19.10;47.68;100413.41;5032382;28;20050;-81
2021/12/28 10:36:02;;;;;;;11.88;10.70;;;;;;;19.12;47.58;100424.84;5015283;28;20049;-81
2021/12/28 10:38:35;;;;;;;11.48;10.38;;;;;;;19.12;47.45;100432.88;5032588;28;20172;-80
2021/12/28 10:41:12;;;;;;;11.07;10.02;;;;;;;19.12;47.60;100428.41;5032438;28;20407;-81
2021/12/28 10:43:45;;;;;;;12.73;11.52;;;;;;;19.11;47.56;100418.63;5032490;28;20048;-80
2021/12/28 10:46:23;;;;;;;11.50;10.23;;;;;;;19.12;47.58;100412.28;5030971;28;20082;-81
2021/12/28 10:48:55;;;;;;;12.57;10.70;;;;;;;19.12;47.63;100406.06;5032129;28;20064;-81
2021/12/28 10:51:34;;;;;;;12.80;11.25;;;;;;;19.11;47.48;100413.25;5032500;28;20112;-80
2021/12/28 10:56:49;;;;;;;12.23;10.98;;;;;;;19.11;47.54;100449.97;5031988;28;20049;-81
2021/12/28 10:59:22;;;;;;;9.77;8.88;;;;;;;19.12;47.44;100438.25;5032278;28;20060;-81
2021/12/28 11:01:50;;;;;;;10.80;9.80;;;;;;;19.11;47.34;100431.19;5014704;28;20053;-81
2021/12/28 11:04:18;;;;;;;11.13;9.75;;;;;;;19.11;47.43;100437.41;5032164;28;20052;-81
2021/12/28 11:06:48;;;;;;;11.27;10.18;;;;;;;19.10;47.27;100441.09;5032870;28;20044;-79
2021/12/28 11:09:34;;;;;;;11.27;9.57;;;;;;;19.10;47.38;100438.41;5032910;28;20045;-81
2021/12/28 11:12:02;;;;;;;10.30;9.30;;;;;;;19.12;47.37;100428.41;5033827;28;20406;-81
2021/12/28 11:14:30;;;;;;;10.90;9.32;;;;;;;19.11;47.26;100429.34;5035534;28;20049;-81
2021/12/28 11:17:04;;;;;;;11.00;9.98;;;;;;;19.10;47.45;100433.03;5035927;28;20049;-81
2021/12/28 11:19:36;;;;;;;10.55;9.55;;;;;;;19.11;47.24;100423.16;5035899;28;20041;-81
2021/12/28 11:22:11;;;;;;;9.40;8.50;;;;;;;19.11;47.44;100417.78;5035910;28;20061;-81
2021/12/28 11:24:47;;;;;;;9.90;9.00;;;;;;;19.10;47.28;100425.00;5035322;28;20045;-81